createdAt,value
2023-05-05T05:01:08.965Z,32.22
2023-05-05T05:02:09.009Z,31.39
2023-05-05T05:03:08.984Z,31.25
2023-05-05T05:04:08.946Z,31.18
2023-05-05T05:05:08.943Z,31.06
2023-05-05T05:06:08.959Z,30.97
2023-05-05T05:07:08.947Z,30.90
2023-05-05T05:08:08.920Z,30.80
2023-05-05T05:09:08.904Z,30.73
2023-05-05T05:10:09.167Z,30.65
2023-05-05T05:11:08.888Z,30.55
2023-05-05T05:12:08.925Z,30.50
2023-05-05T05:13:10.594Z,30.42
2023-05-05T05:14:08.895Z,30.33
2023-05-05T05:15:08.864Z,30.28
2023-05-05T05:16:08.940Z,30.20
2023-05-05T05:17:08.892Z,30.14
2023-05-05T05:18:08.885Z,30.06
2023-05-05T05:19:08.885Z,30.00
2023-05-05T05:20:09.167Z,29.96
2023-05-05T05:21:08.838Z,29.89
2023-05-05T05:22:08.843Z,29.86
2023-05-05T05:23:08.837Z,29.86
2023-05-05T05:24:08.848Z,29.81
2023-05-05T05:25:08.795Z,29.78
2023-05-05T05:26:08.814Z,29.75
2023-05-05T05:27:10.154Z,29.70
2023-05-05T05:28:10.150Z,29.67
2023-05-05T05:29:08.766Z,29.63
2023-05-05T05:30:08.945Z,29.59
2023-05-05T05:31:08.747Z,29.58
2023-05-05T05:32:08.901Z,29.53
2023-05-05T05:33:08.826Z,29.53
2023-05-05T05:34:10.246Z,29.50
2023-05-05T05:35:08.899Z,29.50
2023-05-05T05:36:08.901Z,29.49
2023-05-05T05:37:08.886Z,29.48
2023-05-05T05:38:08.860Z,29.44
2023-05-05T05:39:08.892Z,29.46
2023-05-05T05:40:09.003Z,29.45
2023-05-05T05:41:08.936Z,29.41
2023-05-05T05:42:09.002Z,29.36
2023-05-05T05:43:08.977Z,29.53
2023-05-05T05:44:08.904Z,29.54
2023-05-05T05:45:09.079Z,29.62
2023-05-05T05:46:09.297Z,29.59
2023-05-05T05:47:09.775Z,29.62
2023-05-05T05:48:09.317Z,29.63
2023-05-05T05:49:09.034Z,29.78
2023-05-05T05:50:09.214Z,29.96
2023-05-05T05:51:08.940Z,30.05
2023-05-05T05:52:09.051Z,30.22
2023-05-05T05:53:08.938Z,30.25
2023-05-05T05:54:08.927Z,30.12
2023-05-05T05:55:09.062Z,30.05
2023-05-05T05:56:09.114Z,30.10
2023-05-05T05:57:09.102Z,30.29
2023-05-05T05:58:09.207Z,30.02
2023-05-05T05:59:09.252Z,30.05
2023-05-05T06:00:09.458Z,29.99
2023-05-05T06:01:09.481Z,30.02
2023-05-05T06:02:09.270Z,30.26
2023-05-05T06:03:09.356Z,30.23
2023-05-05T06:04:09.368Z,30.19
2023-05-05T06:05:09.310Z,30.31
2023-05-05T06:06:09.297Z,30.28
2023-05-05T06:07:09.332Z,30.28
2023-05-05T06:08:09.327Z,30.33
2023-05-05T06:09:09.321Z,30.30
2023-05-05T06:10:25.640Z,30.32
2023-05-05T06:11:10.358Z,30.21
2023-05-05T06:12:09.440Z,30.06
2023-05-05T06:13:09.412Z,30.19
2023-05-05T06:14:09.311Z,30.20
2023-05-05T06:15:09.305Z,30.19
2023-05-05T06:16:09.346Z,30.06
2023-05-05T06:17:09.303Z,30.08
2023-05-05T06:18:09.310Z,29.99
2023-05-05T06:19:09.374Z,29.91
2023-05-05T06:20:09.413Z,30.08
2023-05-05T06:21:09.281Z,30.38
2023-05-05T06:22:09.291Z,30.45
2023-05-05T06:23:09.236Z,30.39
2023-05-05T06:24:09.311Z,30.53
2023-05-05T06:25:09.312Z,30.64
2023-05-05T06:26:09.332Z,30.63
2023-05-05T06:27:09.243Z,30.67
2023-05-05T06:28:09.248Z,30.69
2023-05-05T06:29:11.751Z,30.78
2023-05-05T06:30:09.642Z,30.72
2023-05-05T06:31:09.653Z,30.87
2023-05-05T06:32:09.425Z,31.17
2023-05-05T06:33:09.414Z,30.97
2023-05-05T06:34:09.246Z,30.95
2023-05-05T06:35:09.227Z,30.96
2023-05-05T06:36:09.227Z,31.06
2023-05-05T06:37:09.350Z,31.19
2023-05-05T06:38:09.212Z,31.07
2023-05-05T06:39:09.166Z,31.02
2023-05-05T06:40:09.535Z,31.04
2023-05-05T06:41:09.199Z,31.14
2023-05-05T06:42:09.153Z,31.15
2023-05-05T06:43:09.166Z,31.09
2023-05-05T06:44:09.114Z,31.08
2023-05-05T06:45:09.149Z,31.13
2023-05-05T06:46:09.136Z,31.16
2023-05-05T06:47:09.129Z,31.12
2023-05-05T06:48:09.196Z,31.12
2023-05-05T06:49:09.096Z,31.08
2023-05-05T06:50:10.332Z,31.02
2023-05-05T06:51:09.153Z,31.00
2023-05-05T06:52:09.081Z,31.01
2023-05-05T06:53:09.244Z,30.98
2023-05-05T06:54:09.108Z,30.93
2023-05-05T06:55:09.043Z,30.93
2023-05-05T06:56:09.082Z,30.91
2023-05-05T06:57:09.081Z,30.90
2023-05-05T06:58:09.058Z,30.83
2023-05-05T06:59:09.044Z,30.82
2023-05-05T07:00:09.166Z,30.72
2023-05-05T07:01:09.093Z,30.73
2023-05-05T07:02:09.572Z,30.69
2023-05-05T07:03:09.094Z,30.72
2023-05-05T07:04:09.208Z,30.70
2023-05-05T07:05:13.776Z,30.80
2023-05-05T07:06:08.992Z,30.89
2023-05-05T07:07:08.959Z,30.68
2023-05-05T07:08:08.973Z,30.62
2023-05-05T07:09:09.123Z,30.58
2023-05-05T07:10:09.175Z,30.52
2023-05-05T07:11:08.949Z,30.54
2023-05-05T07:12:08.956Z,30.43
2023-05-05T07:13:09.098Z,30.43
2023-05-05T07:14:08.968Z,30.36
2023-05-05T07:15:23.419Z,30.37
2023-05-05T07:16:10.059Z,30.35
2023-05-05T07:17:10.607Z,30.34
2023-05-05T07:18:08.953Z,30.35
2023-05-05T07:19:09.017Z,30.14
2023-05-05T07:20:09.260Z,30.17
2023-05-05T07:21:09.183Z,30.06
2023-05-05T07:22:08.884Z,29.77
2023-05-05T07:23:08.932Z,29.60
2023-05-05T07:24:08.885Z,29.62
2023-05-05T07:25:08.927Z,29.67
2023-05-05T07:26:08.975Z,29.46
2023-05-05T07:27:08.995Z,29.33
2023-05-05T07:28:09.152Z,29.37
2023-05-05T07:29:09.279Z,29.24
2023-05-05T07:30:13.028Z,29.59
2023-05-05T07:31:10.091Z,29.37
2023-05-05T07:32:09.074Z,29.34
2023-05-05T07:33:09.173Z,29.28
2023-05-05T07:34:09.009Z,29.13
2023-05-05T07:35:09.077Z,29.26
2023-05-05T07:36:09.009Z,29.26
2023-05-05T07:37:09.040Z,29.26
2023-05-05T07:38:10.938Z,29.19
2023-05-05T07:39:10.039Z,29.43
2023-05-05T07:40:10.673Z,29.29
2023-05-05T07:41:09.161Z,29.19
2023-05-05T07:42:09.216Z,29.46
2023-05-05T07:43:09.258Z,29.46
2023-05-05T07:44:09.547Z,29.24
2023-05-05T07:45:09.424Z,29.31
2023-05-05T07:46:09.425Z,29.59
2023-05-05T07:47:17.699Z,29.90
2023-05-05T07:48:09.389Z,29.68
2023-05-05T07:49:09.358Z,29.70
2023-05-05T07:50:09.661Z,29.62
2023-05-05T07:51:09.457Z,29.51
2023-05-05T07:52:09.480Z,29.43
2023-05-05T07:53:14.324Z,29.48
2023-05-05T07:54:10.555Z,29.60
2023-05-05T07:55:09.536Z,29.65
2023-05-05T07:56:09.488Z,29.51
2023-05-05T07:57:09.541Z,29.49
2023-05-05T07:58:09.548Z,29.54
2023-05-05T07:59:09.482Z,29.38
2023-05-05T08:00:09.900Z,29.26
2023-05-05T08:01:09.523Z,29.24
2023-05-05T08:02:09.497Z,29.27
2023-05-05T08:03:11.704Z,29.31
2023-05-05T08:04:09.747Z,29.14
2023-05-05T08:05:10.078Z,29.12
2023-05-05T08:06:09.729Z,29.12
2023-05-05T08:07:09.727Z,29.08
2023-05-05T08:08:09.753Z,29.17
2023-05-05T08:09:09.761Z,29.12
2023-05-05T08:10:09.780Z,29.15
2023-05-05T08:11:09.795Z,29.17
2023-05-05T08:12:09.803Z,29.15
2023-05-05T08:13:10.037Z,29.06
2023-05-05T08:14:09.808Z,29.04
2023-05-05T08:15:10.142Z,29.02
2023-05-05T08:16:09.963Z,28.96
2023-05-05T08:17:09.882Z,28.98
2023-05-05T08:18:09.887Z,29.12
2023-05-05T08:19:17.838Z,29.14
2023-05-05T08:20:10.872Z,29.22
2023-05-05T08:21:09.893Z,29.18
2023-05-05T08:22:09.869Z,29.15
2023-05-05T08:23:09.861Z,29.10
2023-05-05T08:24:09.842Z,29.18
2023-05-05T08:25:09.983Z,29.17
2023-05-05T08:26:09.833Z,28.90
2023-05-05T08:27:09.849Z,29.05
2023-05-05T08:28:09.822Z,28.84
2023-05-05T08:29:09.875Z,29.21
2023-05-05T08:30:09.823Z,29.42
2023-05-05T08:31:09.829Z,29.83
2023-05-05T08:32:09.776Z,30.15
2023-05-05T08:33:09.817Z,30.86
2023-05-05T08:34:09.785Z,30.51
2023-05-05T08:35:10.077Z,30.12
2023-05-05T08:36:09.796Z,29.50
2023-05-05T08:37:09.757Z,29.96
2023-05-05T08:38:09.761Z,29.90
2023-05-05T08:39:09.728Z,29.83
2023-05-05T08:40:09.729Z,29.58
2023-05-05T08:41:09.758Z,29.35
2023-05-05T08:42:09.743Z,29.77
2023-05-05T08:43:09.721Z,29.93
2023-05-05T08:44:09.777Z,30.03
2023-05-05T08:45:10.672Z,30.02
2023-05-05T08:46:09.707Z,30.08
2023-05-05T08:47:09.739Z,30.03
2023-05-05T08:48:09.709Z,30.44
2023-05-05T08:49:09.679Z,30.48
2023-05-05T08:50:09.659Z,30.89
2023-05-05T08:51:09.691Z,30.83
2023-05-05T08:52:09.735Z,30.81
2023-05-05T08:53:09.769Z,30.46
2023-05-05T08:54:09.693Z,30.73
2023-05-05T08:55:09.952Z,30.71
2023-05-05T08:56:09.771Z,30.66
2023-05-05T08:57:09.788Z,30.84
2023-05-05T08:58:09.783Z,30.74
2023-05-05T08:59:09.778Z,30.83
2023-05-05T09:00:09.772Z,30.77
2023-05-05T09:01:09.905Z,30.49
2023-05-05T09:02:09.822Z,30.82
2023-05-05T09:03:09.858Z,31.00
2023-05-05T09:04:09.806Z,30.45
2023-05-05T09:05:09.992Z,30.79
2023-05-05T09:06:09.795Z,31.04
2023-05-05T09:07:09.764Z,30.91
2023-05-05T09:08:09.796Z,30.96
2023-05-05T09:09:09.769Z,30.77
2023-05-05T09:10:09.807Z,30.62
2023-05-05T09:11:09.835Z,30.04
2023-05-05T09:12:09.814Z,30.02
2023-05-05T09:13:09.853Z,29.36
2023-05-05T09:14:09.806Z,28.89
2023-05-05T09:15:09.970Z,28.94
2023-05-05T09:16:09.802Z,29.57
2023-05-05T09:17:09.947Z,29.61
2023-05-05T09:18:09.896Z,28.93
2023-05-05T09:19:09.848Z,28.47
2023-05-05T09:20:09.804Z,28.57
2023-05-05T09:21:09.840Z,29.16
2023-05-05T09:22:09.825Z,29.19
2023-05-05T09:23:09.849Z,28.88
2023-05-05T09:24:09.958Z,29.59
2023-05-05T09:25:10.620Z,29.51
2023-05-05T09:26:09.877Z,29.55
2023-05-05T09:27:09.820Z,29.56
2023-05-05T09:28:09.865Z,29.12
2023-05-05T09:29:09.813Z,29.15
2023-05-05T09:30:09.879Z,29.97
2023-05-05T09:31:09.908Z,28.15
2023-05-05T09:32:09.844Z,28.96
2023-05-05T09:33:10.006Z,29.76
2023-05-05T09:34:09.859Z,29.74
2023-05-05T09:35:09.996Z,29.62
2023-05-05T09:36:09.920Z,28.84
2023-05-05T09:37:09.949Z,29.40
2023-05-05T09:38:09.996Z,28.83
2023-05-05T09:39:10.082Z,29.01
2023-05-05T09:40:10.057Z,29.21
2023-05-05T09:41:10.149Z,29.46
2023-05-05T09:42:10.220Z,28.92
2023-05-05T09:43:10.227Z,29.05
2023-05-05T09:44:10.281Z,28.93
2023-05-05T09:45:10.355Z,29.15
2023-05-05T09:46:10.468Z,29.30
2023-05-05T09:47:25.993Z,29.19
2023-05-05T09:48:11.551Z,29.23
2023-05-05T09:49:10.516Z,29.38
2023-05-05T09:50:10.521Z,29.19
2023-05-05T09:51:10.407Z,28.99
2023-05-05T09:52:10.416Z,28.97
2023-05-05T09:53:10.436Z,28.87
2023-05-05T09:54:10.409Z,28.38
2023-05-05T09:55:10.384Z,28.25
2023-05-05T09:56:10.431Z,28.28
2023-05-05T09:57:10.433Z,28.28
2023-05-05T09:58:10.564Z,27.98
2023-05-05T09:59:10.559Z,27.92
2023-05-05T10:00:10.724Z,27.88
2023-05-05T10:01:10.738Z,27.89
2023-05-05T10:02:10.701Z,27.97
2023-05-05T10:03:10.753Z,27.95
2023-05-05T10:04:10.816Z,27.89
2023-05-05T10:05:10.970Z,27.80
2023-05-05T10:06:10.907Z,27.81
2023-05-05T10:07:10.961Z,27.62
2023-05-05T10:08:11.001Z,27.61
2023-05-05T10:09:11.113Z,27.66
2023-05-05T10:10:11.290Z,27.66
2023-05-05T10:11:11.209Z,27.70
2023-05-05T10:12:11.279Z,27.78
2023-05-05T10:13:11.388Z,27.94
2023-05-05T10:14:11.337Z,27.82
2023-05-05T10:15:11.309Z,27.71
2023-05-05T10:16:11.351Z,27.76
2023-05-05T10:17:11.353Z,28.22
2023-05-05T10:18:11.332Z,27.78
2023-05-05T10:19:11.325Z,26.80
2023-05-05T10:20:11.486Z,26.95
2023-05-05T10:21:11.424Z,26.63
2023-05-05T10:22:11.389Z,27.18
2023-05-05T10:23:11.412Z,27.37
2023-05-05T10:24:11.476Z,27.10
2023-05-05T10:25:11.586Z,27.06
2023-05-05T10:26:11.537Z,27.22
2023-05-05T10:27:12.737Z,27.03
2023-05-05T10:28:11.513Z,27.36
2023-05-05T10:29:11.472Z,27.12
2023-05-05T10:30:11.520Z,27.29
2023-05-05T10:31:24.421Z,27.35
2023-05-05T10:32:37.021Z,27.37
2023-05-05T10:33:30.419Z,27.69
2023-05-05T10:34:12.575Z,27.79
2023-05-05T10:35:11.542Z,27.83
2023-05-05T10:36:11.454Z,27.87
2023-05-05T10:37:11.638Z,27.92
2023-05-05T10:38:11.494Z,28.00
2023-05-05T10:39:11.421Z,27.42
2023-05-05T10:40:11.597Z,27.80
2023-05-05T10:41:11.393Z,28.00
2023-05-05T10:42:11.398Z,28.13
2023-05-05T10:43:11.371Z,28.28
2023-05-05T10:44:11.384Z,28.20
2023-05-05T10:45:11.390Z,28.19
2023-05-05T10:46:11.408Z,28.11
2023-05-05T10:47:11.342Z,28.33
2023-05-05T10:48:11.412Z,28.23
2023-05-05T10:49:13.234Z,28.15
2023-05-05T10:50:11.408Z,27.62
2023-05-05T10:51:11.312Z,28.10
2023-05-05T10:52:11.309Z,27.99
2023-05-05T10:53:11.425Z,27.94
2023-05-05T10:54:11.449Z,27.94
2023-05-05T10:55:11.448Z,28.05
2023-05-05T10:56:11.482Z,28.00
2023-05-05T10:57:11.580Z,28.01
2023-05-05T10:58:11.599Z,28.01
2023-05-05T10:59:11.691Z,28.06
2023-05-05T11:00:12.573Z,28.04
2023-05-05T11:01:11.863Z,28.05
2023-05-05T11:02:11.833Z,28.18
2023-05-05T11:03:11.956Z,28.12
2023-05-05T11:04:11.969Z,28.05
2023-05-05T11:05:11.997Z,28.02
2023-05-05T11:06:12.051Z,28.00
2023-05-05T11:07:15.045Z,28.05
2023-05-05T11:08:12.091Z,27.94
2023-05-05T11:09:12.174Z,27.90
2023-05-05T11:10:12.285Z,27.90
2023-05-05T11:11:12.100Z,27.89
2023-05-05T11:12:12.077Z,27.93
2023-05-05T11:13:12.099Z,27.95
2023-05-05T11:14:12.059Z,28.06
2023-05-05T11:15:12.097Z,27.90
2023-05-05T11:16:12.130Z,27.93
2023-05-05T11:17:12.039Z,28.03
2023-05-05T11:18:12.109Z,28.01
2023-05-05T11:19:12.004Z,28.05
2023-05-05T11:20:12.009Z,27.76
2023-05-05T11:21:12.020Z,28.06
2023-05-05T11:22:11.992Z,28.11
2023-05-05T11:23:13.427Z,28.27
2023-05-05T11:24:11.979Z,28.28
2023-05-05T11:25:12.075Z,28.30
2023-05-05T11:26:11.989Z,28.38
2023-05-05T11:27:12.016Z,28.32
2023-05-05T11:28:12.018Z,28.31
2023-05-05T11:29:11.933Z,28.34
2023-05-05T11:30:12.113Z,28.45
2023-05-05T11:31:12.029Z,28.43
2023-05-05T11:32:11.921Z,28.44
2023-05-05T11:33:11.994Z,28.45
2023-05-05T11:34:11.911Z,28.54
2023-05-05T11:35:11.898Z,28.66
2023-05-05T11:36:11.893Z,28.69
2023-05-05T11:37:11.917Z,28.67
2023-05-05T11:38:11.906Z,28.73
2023-05-05T11:39:11.927Z,28.69
2023-05-05T11:40:11.951Z,28.66
2023-05-05T11:41:11.936Z,28.64
2023-05-05T11:42:11.879Z,28.62
2023-05-05T11:43:11.856Z,28.62
2023-05-05T11:44:11.860Z,28.70
2023-05-05T11:45:11.872Z,28.68
2023-05-05T11:46:11.903Z,28.68
2023-05-05T11:47:11.826Z,28.65
2023-05-05T11:48:11.874Z,28.67
2023-05-05T11:49:11.835Z,28.65
2023-05-05T11:50:11.851Z,28.65
2023-05-05T11:51:11.846Z,28.64
2023-05-05T11:52:11.789Z,28.64
2023-05-05T11:53:11.779Z,28.65
2023-05-05T11:54:11.798Z,28.63
2023-05-05T11:55:11.767Z,28.63
2023-05-05T11:56:11.784Z,28.61
2023-05-05T11:57:11.827Z,28.66
2023-05-05T11:58:11.725Z,28.63
2023-05-05T11:59:11.736Z,28.64
2023-05-05T12:00:11.894Z,28.66
2023-05-05T12:01:11.756Z,28.65
2023-05-05T12:02:11.738Z,28.63
2023-05-05T12:03:11.831Z,28.61
2023-05-05T12:04:11.820Z,28.62
2023-05-05T12:05:11.719Z,28.62
2023-05-05T12:06:11.716Z,28.63
2023-05-05T12:07:11.691Z,28.60
2023-05-05T12:08:11.720Z,28.59
2023-05-05T12:09:11.682Z,28.58
2023-05-05T12:10:11.749Z,28.56
2023-05-05T12:11:11.771Z,28.28
2023-05-05T12:12:11.781Z,28.22
2023-05-05T12:13:11.941Z,28.06
2023-05-05T12:14:11.834Z,28.24
2023-05-05T12:15:11.906Z,28.30
2023-05-05T12:16:11.960Z,28.31
2023-05-05T12:17:12.029Z,28.20
2023-05-05T12:18:12.042Z,28.09
2023-05-05T12:19:12.134Z,28.09
2023-05-05T12:20:12.413Z,27.98
2023-05-05T12:21:12.151Z,27.90
2023-05-05T12:22:12.209Z,27.78
2023-05-05T12:23:12.234Z,27.61
2023-05-05T12:24:12.345Z,27.61
2023-05-05T12:25:12.299Z,27.58
2023-05-05T12:26:12.342Z,27.48
2023-05-05T12:27:12.355Z,27.34
2023-05-05T12:28:12.448Z,27.35
2023-05-05T12:29:12.501Z,27.22
2023-05-05T12:30:12.498Z,27.02
2023-05-05T12:31:12.568Z,27.04
2023-05-05T12:32:12.649Z,26.95
2023-05-05T12:33:12.624Z,26.87
2023-05-05T12:34:12.654Z,26.80
2023-05-05T12:35:12.731Z,26.64
2023-05-05T12:36:12.757Z,26.61
2023-05-05T12:37:12.801Z,26.55
2023-05-05T12:38:12.842Z,26.47
2023-05-05T12:39:12.852Z,26.32
2023-05-05T12:40:12.916Z,26.14
2023-05-05T12:41:13.017Z,26.15
2023-05-05T12:42:12.986Z,26.08
2023-05-05T12:43:13.060Z,26.00
2023-05-05T12:44:13.072Z,25.87
2023-05-05T12:45:13.185Z,25.83
2023-05-05T12:46:13.184Z,25.79
2023-05-05T12:47:13.189Z,25.75
2023-05-05T12:48:13.193Z,25.70
2023-05-05T12:49:13.277Z,25.63
2023-05-05T12:50:13.293Z,25.54
2023-05-05T12:51:13.323Z,25.60
2023-05-05T12:52:13.364Z,25.60
2023-05-05T12:53:13.392Z,25.55
2023-05-05T12:54:13.426Z,25.49
2023-05-05T12:55:13.496Z,25.51
2023-05-05T12:56:13.490Z,25.53
2023-05-05T12:57:13.508Z,26.05
2023-05-05T12:58:13.549Z,26.07
2023-05-05T12:59:13.588Z,25.96
2023-05-05T13:00:13.633Z,25.89
2023-05-05T13:01:13.776Z,25.73
2023-05-05T13:02:13.699Z,25.63
2023-05-05T13:03:13.761Z,25.66
2023-05-05T13:04:13.804Z,25.47
2023-05-05T13:05:13.751Z,25.41
2023-05-05T13:06:13.783Z,25.35
2023-05-05T13:07:13.881Z,25.27
2023-05-05T13:08:13.844Z,25.35
2023-05-05T13:09:13.878Z,25.28
2023-05-05T13:10:13.914Z,25.25
2023-05-05T13:11:13.958Z,25.18
2023-05-05T13:12:13.976Z,25.15
2023-05-05T13:13:14.110Z,25.10
2023-05-05T13:14:14.019Z,25.08
2023-05-05T13:15:14.122Z,25.02
2023-05-05T13:16:14.140Z,24.94
2023-05-05T13:17:14.112Z,24.88
2023-05-05T13:18:14.089Z,24.87
2023-05-05T13:19:14.128Z,24.91
2023-05-05T13:20:14.178Z,24.86
2023-05-05T13:21:14.232Z,24.86
2023-05-05T13:22:14.239Z,24.78
2023-05-05T13:23:14.229Z,24.77
2023-05-05T13:25:14.214Z,24.64
2023-05-05T13:26:14.210Z,24.66
2023-05-05T13:27:14.303Z,24.70
2023-05-05T13:28:14.216Z,24.63
2023-05-05T13:29:14.210Z,24.62
2023-05-05T13:30:14.212Z,24.60
2023-05-05T13:31:14.284Z,24.59
2023-05-05T13:32:14.200Z,24.61
2023-05-05T13:33:14.239Z,24.57
2023-05-05T13:34:14.198Z,24.62
2023-05-05T13:35:16.190Z,24.62
2023-05-05T13:36:14.149Z,24.63
2023-05-05T13:37:14.170Z,24.74
2023-05-05T13:38:14.202Z,24.55
2023-05-05T13:39:14.212Z,24.50
2023-05-05T13:40:14.226Z,24.52
2023-05-05T13:41:14.269Z,24.48
2023-05-05T13:42:14.251Z,24.46
2023-05-05T13:43:14.268Z,24.49
2023-05-05T13:44:14.271Z,24.45
2023-05-05T13:45:14.312Z,24.49
2023-05-05T13:46:19.753Z,24.45
2023-05-05T13:47:15.392Z,24.45
2023-05-05T13:48:14.276Z,24.41
2023-05-05T13:49:14.363Z,24.39
2023-05-05T13:50:14.261Z,24.41
2023-05-05T13:51:14.246Z,24.41
2023-05-05T13:52:14.223Z,24.40
2023-05-05T13:53:14.237Z,24.36
2023-05-05T13:54:14.213Z,24.36
2023-05-05T13:55:14.228Z,24.35
2023-05-05T13:56:14.215Z,24.36
2023-05-05T13:57:14.203Z,24.28
2023-05-05T13:58:14.241Z,24.25
2023-05-05T13:59:14.230Z,24.24
2023-05-05T14:00:14.220Z,24.25
2023-05-05T14:01:14.249Z,24.24
2023-05-05T14:02:14.211Z,24.25
2023-05-05T14:03:14.175Z,24.21
2023-05-05T14:04:14.254Z,24.21
2023-05-05T14:05:14.210Z,24.18
2023-05-05T14:06:14.123Z,24.20
2023-05-05T14:07:14.240Z,24.19
2023-05-05T14:08:14.160Z,24.22
2023-05-05T14:09:14.135Z,24.33
2023-05-05T14:10:14.137Z,24.38
2023-05-05T14:11:14.113Z,24.49
2023-05-05T14:12:14.098Z,24.50
2023-05-05T14:13:14.202Z,24.45
2023-05-05T14:14:14.099Z,24.47
2023-05-05T14:15:14.091Z,24.54
2023-05-05T14:16:14.147Z,24.58
2023-05-05T14:17:14.083Z,24.56
2023-05-05T14:18:14.103Z,24.64
2023-05-05T14:19:14.056Z,24.70
2023-05-05T14:20:14.081Z,24.69
2023-05-05T14:21:14.123Z,24.76
2023-05-05T14:22:14.068Z,24.68
2023-05-05T14:23:14.037Z,24.83
2023-05-05T14:24:14.078Z,24.84
2023-05-05T14:25:14.013Z,24.90
2023-05-05T14:26:14.038Z,24.91
2023-05-05T14:27:14.030Z,24.97
2023-05-05T14:28:14.002Z,24.89
2023-05-05T14:29:13.998Z,25.00
2023-05-05T14:30:14.036Z,25.02
2023-05-05T14:31:14.012Z,25.03
2023-05-05T14:32:14.051Z,25.12
2023-05-05T14:33:13.958Z,25.03
2023-05-05T14:34:13.971Z,25.04
2023-05-05T14:35:13.955Z,25.00
2023-05-05T14:36:13.956Z,25.08
2023-05-05T14:37:14.009Z,25.12
2023-05-05T14:38:14.005Z,25.12
2023-05-05T14:39:13.951Z,25.06
2023-05-05T14:40:13.955Z,25.15
2023-05-05T14:41:13.950Z,25.14
2023-05-05T14:42:13.947Z,25.21
2023-05-05T14:43:14.034Z,25.21
2023-05-05T14:44:14.041Z,25.21
2023-05-05T14:45:14.001Z,25.41
2023-05-05T14:46:14.045Z,25.41
2023-05-05T14:47:14.031Z,25.41
2023-05-05T14:48:14.012Z,25.43
2023-05-05T14:49:14.050Z,25.33
2023-05-05T14:50:14.241Z,25.51
2023-05-05T14:51:14.065Z,25.53
2023-05-05T14:52:14.102Z,25.53
2023-05-05T14:53:14.156Z,25.52
2023-05-05T14:54:26.948Z,25.55
2023-05-05T14:55:15.121Z,25.53
2023-05-05T14:56:14.289Z,25.61
2023-05-05T14:57:14.080Z,25.55
2023-05-05T14:58:14.065Z,25.63
2023-05-05T14:59:14.052Z,25.65
2023-05-05T15:00:14.028Z,25.72
2023-05-05T15:01:14.074Z,25.71
2023-05-05T15:02:14.066Z,25.63
2023-05-05T15:03:14.130Z,25.69
2023-05-05T15:04:14.034Z,25.67
2023-05-05T15:05:14.020Z,25.73
2023-05-05T15:06:14.030Z,25.84
2023-05-05T15:07:14.023Z,25.85
2023-05-05T15:08:14.039Z,25.79
2023-05-05T15:09:14.088Z,25.82
2023-05-05T15:10:14.012Z,25.82
2023-05-05T15:11:13.978Z,25.86
2023-05-05T15:12:13.974Z,25.90
2023-05-05T15:13:14.123Z,25.94
2023-05-05T15:14:13.987Z,25.96
2023-05-05T15:15:13.958Z,25.95
2023-05-05T15:16:14.021Z,25.95
2023-05-05T15:17:13.945Z,25.98
2023-05-05T15:18:13.914Z,26.01
2023-05-05T15:19:13.912Z,25.98
2023-05-05T15:20:13.920Z,26.00
2023-05-05T15:21:13.918Z,26.02
2023-05-05T15:22:13.914Z,26.04
2023-05-05T15:23:13.953Z,26.05
2023-05-05T15:24:13.922Z,26.03
2023-05-05T15:25:13.936Z,26.02
2023-05-05T15:26:13.960Z,26.02
2023-05-05T15:27:13.945Z,26.06
2023-05-05T15:28:13.950Z,26.10
2023-05-05T15:29:14.000Z,26.08
2023-05-05T15:30:13.964Z,26.10
2023-05-05T15:31:13.957Z,26.06
2023-05-05T15:32:13.960Z,26.09
2023-05-05T15:33:13.990Z,26.17
2023-05-05T15:34:13.998Z,26.16
2023-05-05T15:35:14.012Z,26.16
2023-05-05T15:36:14.036Z,26.12
2023-05-05T15:37:14.059Z,26.13
2023-05-05T15:38:14.081Z,26.15
2023-05-05T15:39:14.018Z,26.08
2023-05-05T15:40:14.059Z,26.08
2023-05-05T15:41:14.237Z,26.17
2023-05-05T15:42:14.081Z,26.13
2023-05-05T15:43:14.088Z,26.19
2023-05-05T15:44:14.134Z,26.13
2023-05-05T15:45:14.177Z,26.16
2023-05-05T15:46:14.217Z,26.15
2023-05-05T15:47:14.192Z,26.14
2023-05-05T15:48:14.212Z,26.16
2023-05-05T15:49:14.201Z,26.19
2023-05-05T15:50:14.269Z,26.16
2023-05-05T15:51:14.243Z,26.14
2023-05-05T15:52:14.258Z,26.18
2023-05-05T15:53:14.250Z,26.23
2023-05-05T15:54:14.294Z,26.19
2023-05-05T15:55:14.313Z,26.27
2023-05-05T15:56:14.275Z,26.28
2023-05-05T15:57:14.377Z,26.22
2023-05-05T15:58:14.321Z,26.25
2023-05-05T15:59:14.333Z,26.23
2023-05-05T16:00:14.363Z,26.31
2023-05-05T16:01:14.355Z,26.31
2023-05-05T16:02:14.385Z,26.22
2023-05-05T16:03:14.449Z,26.30
2023-05-05T16:04:14.404Z,26.28
2023-05-05T16:05:14.447Z,26.28
2023-05-05T16:06:14.434Z,26.23
2023-05-05T16:07:14.440Z,26.28
2023-05-05T16:08:14.479Z,26.29
2023-05-05T16:09:14.520Z,26.31
2023-05-05T16:10:14.547Z,26.31
2023-05-05T16:11:14.504Z,26.29
2023-05-05T16:12:14.551Z,26.30
2023-05-05T16:13:14.956Z,26.25
2023-05-05T16:14:14.628Z,26.30
2023-05-05T16:15:14.635Z,26.26
2023-05-05T16:16:14.673Z,26.33
2023-05-05T16:17:14.683Z,26.32
2023-05-05T16:18:14.674Z,26.24
2023-05-05T16:19:14.689Z,26.37
2023-05-05T16:20:14.743Z,26.30
2023-05-05T16:21:15.083Z,26.43
2023-05-05T16:22:14.737Z,26.28
2023-05-05T16:23:14.770Z,26.28
2023-05-05T16:24:14.769Z,26.34
2023-05-05T16:25:14.808Z,26.32
2023-05-05T16:26:14.883Z,26.33
2023-05-05T16:27:14.871Z,26.38
2023-05-05T16:28:14.920Z,26.38
2023-05-05T16:29:14.982Z,26.39
2023-05-05T16:30:14.957Z,26.34
2023-05-05T16:31:14.987Z,26.31
2023-05-05T16:32:14.966Z,26.44
2023-05-05T16:33:15.017Z,26.45
2023-05-05T16:34:15.018Z,26.49
2023-05-05T16:35:15.375Z,26.44
2023-05-05T16:36:15.094Z,26.36
2023-05-05T16:37:15.076Z,26.45
2023-05-05T16:38:15.094Z,26.38
2023-05-05T16:39:15.127Z,26.44
2023-05-05T16:40:15.183Z,26.47
2023-05-05T16:41:15.310Z,26.43
2023-05-05T16:42:15.274Z,26.48
2023-05-05T16:43:15.266Z,26.47
2023-05-05T16:44:15.317Z,26.48
2023-05-05T16:45:15.599Z,26.45
2023-05-05T16:46:15.386Z,26.53
2023-05-05T16:47:15.358Z,26.54
2023-05-05T16:48:15.351Z,26.48
2023-05-05T16:49:15.388Z,26.51
2023-05-05T16:50:15.427Z,26.52
2023-05-05T16:51:15.456Z,26.57
2023-05-05T16:52:15.503Z,26.53
2023-05-05T16:53:15.506Z,26.58
2023-05-05T16:54:15.549Z,26.50
2023-05-05T16:55:15.595Z,26.49
2023-05-05T16:56:15.620Z,26.55
2023-05-05T16:57:15.615Z,26.56
2023-05-05T16:58:15.646Z,26.53
2023-05-05T16:59:15.690Z,26.58
2023-05-05T17:00:15.742Z,26.57
